Etusivu
METAR-TAF:

METAR-TAF

Lentoasemat :

Shahrekord, Iran

Leveyspiiri: 32-20N, Pituuspiiri: 050-51E, korkeus merenpinnasta: 2078 m

Tämänhetkinen sää

Tämä raportti tehtiin 1 tunti ja 7 minuuttia sitten, kello 15.00 UTC
Tuuli 10 kn etelästä
Lämpötila 10°C
Kosteus 71%
Ilmanpaine 1015 hPa
Näkyvyys: 9000 m
Muutamia pilviä 3000 ft:n korkeudessa, Cumulonimbus.
Hajanaisia pilviä 3500 ft:n korkeudessa
Pilvistä 8000 ft:n korkeudessa
heikkoja vesikuuroja

METAR: OIFS 251500Z 19010KT 9000 -SHRA FEW030CB SCT035 OVC080 10/05 Q1015

Aika: 19:37 (16:07 UTC)


TAF: puuttuu

Säähavainnot ja -ennusteet yli 4000 lentoasemalta (METAR- ja TAF-raportit).

Käytössä olevat sääasemat on merkitty karttaan keltaisilla ja punaisilla pisteillä.

Aseta hiiri pisteen päälle nähdäksesi sääaseman nimen.

Klikkaa sitten nähdäksesi säähavainnot ja -ennusteet.

Kartan vaihtaminen: klikkaa mustalla rastilla varustettuja vihreitä pisteitä, niin voit zoomata sisään; viivalla varustettua vihreää pistettä, niin voit zoomata ulos tai vihreitä nuolia, niin pääset viereisille kartoille.


METAR-TAF: